Nules, Spain
Current Conditions -  °F | °C
As of 3:00 PM on Monday 24 Nov 2014 (Local Time) from LEBT Reporting Station
Clear Clear  
Wind Chill: 70°   Ceiling: Unl
Heat Index: 70°   Visibility: 6mi
Dew Point: 55°   Wind: 5mph
Humidity: 60%   Direction: 150°SSE
Pressure: 29.97"   Gusts: NA
Location:  39.85°N, 0.16°W
Report Text: LEBT 241400Z AUTO 15004KT 120V210 CAVOK 21/13 Q1015
Loading
Personal Weather Stations






























Interactive Weather Map New forecast layout! Learn more

10-Day Weather Forecast

Advertisements
Track Severe Weather on mobile